sensor_id;sensor_type;location;lat;lon;timestamp;P1;durP1;ratioP1;P2;durP2;ratioP2
13584;SDS011;6863;48.402;9.994;2023-08-06T00:02:25;10.00;;;8.10;;
13584;SDS011;6863;48.402;9.994;2023-08-06T00:04:51;9.57;;;8.37;;
13584;SDS011;6863;48.402;9.994;2023-08-06T00:07:17;8.27;;;7.57;;
13584;SDS011;6863;48.402;9.994;2023-08-06T00:09:43;8.43;;;7.50;;
13584;SDS011;6863;48.402;9.994;2023-08-06T00:12:08;9.10;;;8.17;;
13584;SDS011;6863;48.402;9.994;2023-08-06T00:14:34;9.07;;;8.20;;
13584;SDS011;6863;48.402;9.994;2023-08-06T00:16:59;9.30;;;8.40;;
13584;SDS011;6863;48.402;9.994;2023-08-06T00:19:25;10.03;;;8.97;;
13584;SDS011;6863;48.402;9.994;2023-08-06T00:21:51;8.70;;;7.80;;
13584;SDS011;6863;48.402;9.994;2023-08-06T00:24:16;9.40;;;8.47;;
13584;SDS011;6863;48.402;9.994;2023-08-06T00:26:42;9.47;;;8.67;;
13584;SDS011;6863;48.402;9.994;2023-08-06T00:29:07;9.10;;;8.17;;
13584;SDS011;6863;48.402;9.994;2023-08-06T00:31:33;8.80;;;8.00;;
13584;SDS011;6863;48.402;9.994;2023-08-06T00:33:58;8.27;;;7.40;;
13584;SDS011;6863;48.402;9.994;2023-08-06T00:36:24;9.23;;;8.27;;
13584;SDS011;6863;48.402;9.994;2023-08-06T00:38:49;8.87;;;7.97;;
13584;SDS011;6863;48.402;9.994;2023-08-06T00:41:15;12.17;;;8.50;;
13584;SDS011;6863;48.402;9.994;2023-08-06T00:43:40;11.60;;;8.47;;
13584;SDS011;6863;48.402;9.994;2023-08-06T00:46:06;9.43;;;8.27;;
13584;SDS011;6863;48.402;9.994;2023-08-06T00:48:32;8.83;;;7.50;;
13584;SDS011;6863;48.402;9.994;2023-08-06T00:50:58;7.80;;;7.20;;
13584;SDS011;6863;48.402;9.994;2023-08-06T00:53:24;7.80;;;7.10;;
13584;SDS011;6863;48.402;9.994;2023-08-06T00:55:50;7.77;;;6.97;;
13584;SDS011;6863;48.402;9.994;2023-08-06T00:58:16;8.30;;;7.30;;
13584;SDS011;6863;48.402;9.994;2023-08-06T01:00:42;8.73;;;7.93;;
13584;SDS011;6863;48.402;9.994;2023-08-06T01:03:08;8.90;;;8.00;;
13584;SDS011;6863;48.402;9.994;2023-08-06T01:05:33;8.43;;;7.70;;
13584;SDS011;6863;48.402;9.994;2023-08-06T01:13:27;9.27;;;7.70;;
13584;SDS011;6863;48.402;9.994;2023-08-06T01:16:02;8.90;;;8.07;;
13584;SDS011;6863;48.402;9.994;2023-08-06T01:18:30;9.63;;;7.80;;
13584;SDS011;6863;48.402;9.994;2023-08-06T01:20:56;8.87;;;7.97;;
13584;SDS011;6863;48.402;9.994;2023-08-06T01:23:22;9.37;;;8.40;;
13584;SDS011;6863;48.402;9.994;2023-08-06T01:31:22;7.90;;;7.17;;
13584;SDS011;6863;48.402;9.994;2023-08-06T01:33:52;8.27;;;7.47;;
13584;SDS011;6863;48.402;9.994;2023-08-06T01:36:18;8.17;;;7.30;;
13584;SDS011;6863;48.402;9.994;2023-08-06T01:38:45;8.30;;;7.33;;
13584;SDS011;6863;48.402;9.994;2023-08-06T01:41:11;8.17;;;7.30;;
13584;SDS011;6863;48.402;9.994;2023-08-06T01:43:36;7.13;;;6.53;;
13584;SDS011;6863;48.402;9.994;2023-08-06T01:46:02;6.97;;;6.37;;
13584;SDS011;6863;48.402;9.994;2023-08-06T01:48:28;6.87;;;6.27;;
13584;SDS011;6863;48.402;9.994;2023-08-06T01:50:53;6.83;;;6.13;;
13584;SDS011;6863;48.402;9.994;2023-08-06T01:53:19;7.10;;;6.40;;
13584;SDS011;6863;48.402;9.994;2023-08-06T01:55:48;7.60;;;6.90;;
13584;SDS011;6863;48.402;9.994;2023-08-06T01:58:14;6.87;;;6.27;;
13584;SDS011;6863;48.402;9.994;2023-08-06T02:00:40;8.00;;;6.93;;
13584;SDS011;6863;48.402;9.994;2023-08-06T02:03:05;7.10;;;6.40;;
13584;SDS011;6863;48.402;9.994;2023-08-06T02:05:31;7.60;;;6.90;;
13584;SDS011;6863;48.402;9.994;2023-08-06T02:07:57;7.53;;;6.83;;
13584;SDS011;6863;48.402;9.994;2023-08-06T02:10:22;8.23;;;7.43;;
13584;SDS011;6863;48.402;9.994;2023-08-06T02:12:48;7.43;;;6.67;;
13584;SDS011;6863;48.402;9.994;2023-08-06T02:15:13;7.63;;;6.93;;
13584;SDS011;6863;48.402;9.994;2023-08-06T02:17:39;7.20;;;6.60;;
13584;SDS011;6863;48.402;9.994;2023-08-06T02:20:05;8.67;;;6.93;;
13584;SDS011;6863;48.402;9.994;2023-08-06T02:22:31;6.50;;;5.93;;
13584;SDS011;6863;48.402;9.994;2023-08-06T02:24:56;7.13;;;6.50;;
13584;SDS011;6863;48.402;9.994;2023-08-06T02:27:22;8.87;;;6.80;;
13584;SDS011;6863;48.402;9.994;2023-08-06T02:29:47;6.87;;;6.17;;
13584;SDS011;6863;48.402;9.994;2023-08-06T02:32:13;6.80;;;6.20;;
13584;SDS011;6863;48.402;9.994;2023-08-06T02:34:38;6.83;;;6.20;;
13584;SDS011;6863;48.402;9.994;2023-08-06T02:37:04;7.23;;;6.63;;
13584;SDS011;6863;48.402;9.994;2023-08-06T02:39:30;8.10;;;7.20;;
13584;SDS011;6863;48.402;9.994;2023-08-06T02:41:55;8.00;;;6.57;;
13584;SDS011;6863;48.402;9.994;2023-08-06T02:44:21;9.07;;;6.33;;
13584;SDS011;6863;48.402;9.994;2023-08-06T02:46:46;6.87;;;6.17;;
13584;SDS011;6863;48.402;9.994;2023-08-06T02:49:12;6.50;;;5.90;;
13584;SDS011;6863;48.402;9.994;2023-08-06T02:51:37;7.77;;;5.93;;
13584;SDS011;6863;48.402;9.994;2023-08-06T02:54:03;6.93;;;6.27;;
13584;SDS011;6863;48.402;9.994;2023-08-06T02:56:28;7.20;;;5.77;;
13584;SDS011;6863;48.402;9.994;2023-08-06T02:58:54;7.00;;;6.37;;
13584;SDS011;6863;48.402;9.994;2023-08-06T03:01:20;7.10;;;6.37;;
13584;SDS011;6863;48.402;9.994;2023-08-06T03:03:45;8.00;;;6.60;;
13584;SDS011;6863;48.402;9.994;2023-08-06T03:06:11;6.93;;;6.33;;
13584;SDS011;6863;48.402;9.994;2023-08-06T03:08:36;6.77;;;6.07;;
13584;SDS011;6863;48.402;9.994;2023-08-06T03:11:02;7.43;;;6.53;;
13584;SDS011;6863;48.402;9.994;2023-08-06T03:13:28;8.87;;;6.87;;
13584;SDS011;6863;48.402;9.994;2023-08-06T03:15:57;7.33;;;6.53;;
13584;SDS011;6863;48.402;9.994;2023-08-06T03:18:24;7.33;;;6.63;;
13584;SDS011;6863;48.402;9.994;2023-08-06T03:20:51;8.17;;;7.37;;
13584;SDS011;6863;48.402;9.994;2023-08-06T03:23:16;8.27;;;7.30;;
13584;SDS011;6863;48.402;9.994;2023-08-06T03:25:42;9.03;;;8.20;;
13584;SDS011;6863;48.402;9.994;2023-08-06T03:28:08;10.13;;;8.43;;
13584;SDS011;6863;48.402;9.994;2023-08-06T03:30:34;8.60;;;7.80;;
13584;SDS011;6863;48.402;9.994;2023-08-06T03:33:00;9.83;;;8.93;;
13584;SDS011;6863;48.402;9.994;2023-08-06T03:35:25;10.10;;;9.00;;
13584;SDS011;6863;48.402;9.994;2023-08-06T03:37:51;10.03;;;9.03;;
13584;SDS011;6863;48.402;9.994;2023-08-06T03:40:16;10.23;;;9.00;;
13584;SDS011;6863;48.402;9.994;2023-08-06T03:42:42;10.67;;;9.60;;
13584;SDS011;6863;48.402;9.994;2023-08-06T03:45:08;10.63;;;9.27;;
13584;SDS011;6863;48.402;9.994;2023-08-06T03:47:34;11.37;;;9.97;;
13584;SDS011;6863;48.402;9.994;2023-08-06T03:49:59;12.53;;;9.10;;
13584;SDS011;6863;48.402;9.994;2023-08-06T03:52:25;10.30;;;9.30;;
13584;SDS011;6863;48.402;9.994;2023-08-06T03:54:50;10.83;;;9.70;;
13584;SDS011;6863;48.402;9.994;2023-08-06T03:57:16;10.70;;;9.60;;
13584;SDS011;6863;48.402;9.994;2023-08-06T03:59:42;9.57;;;8.67;;
13584;SDS011;6863;48.402;9.994;2023-08-06T04:02:07;12.40;;;10.30;;
13584;SDS011;6863;48.402;9.994;2023-08-06T04:04:33;11.40;;;9.17;;
13584;SDS011;6863;48.402;9.994;2023-08-06T04:06:58;9.70;;;8.80;;
13584;SDS011;6863;48.402;9.994;2023-08-06T04:09:24;12.40;;;9.83;;
13584;SDS011;6863;48.402;9.994;2023-08-06T04:11:49;11.23;;;9.23;;
13584;SDS011;6863;48.402;9.994;2023-08-06T04:14:15;10.37;;;9.33;;
13584;SDS011;6863;48.402;9.994;2023-08-06T04:16:40;9.93;;;8.77;;
13584;SDS011;6863;48.402;9.994;2023-08-06T04:19:06;11.73;;;9.80;;
13584;SDS011;6863;48.402;9.994;2023-08-06T04:21:31;10.37;;;9.30;;
13584;SDS011;6863;48.402;9.994;2023-08-06T04:23:57;12.87;;;9.87;;
13584;SDS011;6863;48.402;9.994;2023-08-06T04:26:23;10.47;;;9.33;;
13584;SDS011;6863;48.402;9.994;2023-08-06T04:28:48;10.03;;;8.93;;
13584;SDS011;6863;48.402;9.994;2023-08-06T04:31:14;9.90;;;8.90;;
13584;SDS011;6863;48.402;9.994;2023-08-06T04:33:40;10.30;;;8.47;;
13584;SDS011;6863;48.402;9.994;2023-08-06T04:36:05;9.70;;;8.70;;
13584;SDS011;6863;48.402;9.994;2023-08-06T04:38:31;8.77;;;7.77;;
13584;SDS011;6863;48.402;9.994;2023-08-06T04:40:57;9.40;;;8.40;;
13584;SDS011;6863;48.402;9.994;2023-08-06T04:43:23;9.17;;;8.07;;
13584;SDS011;6863;48.402;9.994;2023-08-06T04:45:49;8.90;;;7.93;;
13584;SDS011;6863;48.402;9.994;2023-08-06T04:48:16;11.60;;;7.37;;
13584;SDS011;6863;48.402;9.994;2023-08-06T04:50:45;7.83;;;7.03;;
13584;SDS011;6863;48.402;9.994;2023-08-06T04:53:11;8.17;;;6.37;;
13584;SDS011;6863;48.402;9.994;2023-08-06T04:55:37;7.77;;;6.33;;
13584;SDS011;6863;48.402;9.994;2023-08-06T04:58:03;5.97;;;5.47;;
13584;SDS011;6863;48.402;9.994;2023-08-06T05:00:28;6.03;;;5.53;;
13584;SDS011;6863;48.402;9.994;2023-08-06T05:02:54;6.37;;;5.57;;
13584;SDS011;6863;48.402;9.994;2023-08-06T05:05:19;5.53;;;5.03;;
13584;SDS011;6863;48.402;9.994;2023-08-06T05:07:47;6.87;;;5.60;;
13584;SDS011;6863;48.402;9.994;2023-08-06T05:10:14;6.93;;;5.90;;
13584;SDS011;6863;48.402;9.994;2023-08-06T05:12:40;6.20;;;5.50;;
13584;SDS011;6863;48.402;9.994;2023-08-06T05:15:05;5.57;;;4.90;;
13584;SDS011;6863;48.402;9.994;2023-08-06T05:17:31;6.97;;;5.70;;
13584;SDS011;6863;48.402;9.994;2023-08-06T05:19:57;6.03;;;5.50;;
13584;SDS011;6863;48.402;9.994;2023-08-06T05:22:23;5.83;;;5.23;;
13584;SDS011;6863;48.402;9.994;2023-08-06T05:24:48;5.13;;;4.73;;
13584;SDS011;6863;48.402;9.994;2023-08-06T05:27:14;6.87;;;5.50;;
13584;SDS011;6863;48.402;9.994;2023-08-06T05:29:40;6.00;;;5.57;;
13584;SDS011;6863;48.402;9.994;2023-08-06T05:32:05;6.77;;;5.77;;
13584;SDS011;6863;48.402;9.994;2023-08-06T05:34:31;6.23;;;5.63;;
13584;SDS011;6863;48.402;9.994;2023-08-06T05:36:57;6.53;;;5.37;;
13584;SDS011;6863;48.402;9.994;2023-08-06T05:39:22;5.53;;;5.03;;
13584;SDS011;6863;48.402;9.994;2023-08-06T05:41:48;6.50;;;5.53;;
13584;SDS011;6863;48.402;9.994;2023-08-06T05:44:14;6.27;;;5.10;;
13584;SDS011;6863;48.402;9.994;2023-08-06T05:46:39;5.30;;;4.80;;
13584;SDS011;6863;48.402;9.994;2023-08-06T05:49:05;6.03;;;4.67;;
13584;SDS011;6863;48.402;9.994;2023-08-06T05:51:30;4.93;;;4.30;;
13584;SDS011;6863;48.402;9.994;2023-08-06T05:53:56;8.87;;;5.30;;
13584;SDS011;6863;48.402;9.994;2023-08-06T05:56:21;4.90;;;4.50;;
13584;SDS011;6863;48.402;9.994;2023-08-06T05:58:47;4.70;;;4.23;;
13584;SDS011;6863;48.402;9.994;2023-08-06T06:01:13;5.33;;;4.83;;
13584;SDS011;6863;48.402;9.994;2023-08-06T06:03:39;5.50;;;4.83;;
13584;SDS011;6863;48.402;9.994;2023-08-06T06:06:04;4.87;;;4.20;;
13584;SDS011;6863;48.402;9.994;2023-08-06T06:08:30;5.10;;;4.70;;
13584;SDS011;6863;48.402;9.994;2023-08-06T06:10:55;4.30;;;3.90;;
13584;SDS011;6863;48.402;9.994;2023-08-06T06:13:21;4.63;;;4.13;;
13584;SDS011;6863;48.402;9.994;2023-08-06T06:15:47;4.80;;;4.30;;
13584;SDS011;6863;48.402;9.994;2023-08-06T06:18:13;4.27;;;3.87;;
13584;SDS011;6863;48.402;9.994;2023-08-06T06:20:38;4.20;;;3.73;;
13584;SDS011;6863;48.402;9.994;2023-08-06T06:23:04;4.27;;;3.87;;
13584;SDS011;6863;48.402;9.994;2023-08-06T06:25:29;3.90;;;3.40;;
13584;SDS011;6863;48.402;9.994;2023-08-06T06:27:55;4.30;;;3.17;;
13584;SDS011;6863;48.402;9.994;2023-08-06T06:30:20;3.47;;;2.90;;
13584;SDS011;6863;48.402;9.994;2023-08-06T06:32:46;2.80;;;2.60;;
13584;SDS011;6863;48.402;9.994;2023-08-06T06:35:12;3.63;;;2.63;;
13584;SDS011;6863;48.402;9.994;2023-08-06T06:37:37;2.97;;;2.37;;
13584;SDS011;6863;48.402;9.994;2023-08-06T06:40:03;2.77;;;2.53;;
13584;SDS011;6863;48.402;9.994;2023-08-06T06:42:29;3.57;;;3.07;;
13584;SDS011;6863;48.402;9.994;2023-08-06T06:44:55;3.37;;;2.67;;
13584;SDS011;6863;48.402;9.994;2023-08-06T06:47:20;3.17;;;2.97;;
13584;SDS011;6863;48.402;9.994;2023-08-06T06:49:46;2.90;;;2.70;;
13584;SDS011;6863;48.402;9.994;2023-08-06T06:52:12;2.30;;;2.20;;
13584;SDS011;6863;48.402;9.994;2023-08-06T06:54:37;2.63;;;2.23;;
13584;SDS011;6863;48.402;9.994;2023-08-06T06:57:03;2.43;;;2.03;;
13584;SDS011;6863;48.402;9.994;2023-08-06T06:59:29;2.50;;;1.60;;
13584;SDS011;6863;48.402;9.994;2023-08-06T07:01:55;1.70;;;1.60;;
13584;SDS011;6863;48.402;9.994;2023-08-06T07:04:20;1.88;;;1.70;;
13584;SDS011;6863;48.402;9.994;2023-08-06T07:06:47;1.90;;;1.80;;
13584;SDS011;6863;48.402;9.994;2023-08-06T07:09:12;1.90;;;1.70;;
13584;SDS011;6863;48.402;9.994;2023-08-06T07:11:38;2.20;;;1.70;;
13584;SDS011;6863;48.402;9.994;2023-08-06T07:14:07;2.23;;;1.60;;
13584;SDS011;6863;48.402;9.994;2023-08-06T07:16:33;1.70;;;1.60;;
13584;SDS011;6863;48.402;9.994;2023-08-06T07:18:59;2.03;;;1.77;;
13584;SDS011;6863;48.402;9.994;2023-08-06T07:21:25;1.80;;;1.70;;
13584;SDS011;6863;48.402;9.994;2023-08-06T07:23:50;1.77;;;1.53;;
13584;SDS011;6863;48.402;9.994;2023-08-06T07:26:16;1.50;;;1.40;;
13584;SDS011;6863;48.402;9.994;2023-08-06T07:28:42;1.90;;;1.80;;
13584;SDS011;6863;48.402;9.994;2023-08-06T07:31:07;1.98;;;1.48;;
13584;SDS011;6863;48.402;9.994;2023-08-06T07:33:33;1.60;;;1.50;;
13584;SDS011;6863;48.402;9.994;2023-08-06T07:35:58;1.58;;;1.45;;
13584;SDS011;6863;48.402;9.994;2023-08-06T07:38:24;1.10;;;1.10;;
13584;SDS011;6863;48.402;9.994;2023-08-06T07:40:51;1.45;;;1.17;;
13584;SDS011;6863;48.402;9.994;2023-08-06T07:43:16;1.55;;;1.00;;
13584;SDS011;6863;48.402;9.994;2023-08-06T07:45:42;1.17;;;1.13;;
13584;SDS011;6863;48.402;9.994;2023-08-06T07:48:07;0.90;;;0.90;;
13584;SDS011;6863;48.402;9.994;2023-08-06T07:50:33;0.60;;;0.60;;
13584;SDS011;6863;48.402;9.994;2023-08-06T07:52:59;0.82;;;0.80;;
13584;SDS011;6863;48.402;9.994;2023-08-06T07:55:25;0.77;;;0.77;;
13584;SDS011;6863;48.402;9.994;2023-08-06T08:00:16;0.57;;;0.50;;
13584;SDS011;6863;48.402;9.994;2023-08-06T08:02:41;1.38;;;0.47;;
13584;SDS011;6863;48.402;9.994;2023-08-06T08:05:07;0.57;;;0.57;;
13584;SDS011;6863;48.402;9.994;2023-08-06T08:07:33;0.57;;;0.50;;
13584;SDS011;6863;48.402;9.994;2023-08-06T08:09:59;0.32;;;0.32;;
13584;SDS011;6863;48.402;9.994;2023-08-06T08:12:24;1.30;;;0.55;;
13584;SDS011;6863;48.402;9.994;2023-08-06T08:14:50;0.50;;;0.50;;
13584;SDS011;6863;48.402;9.994;2023-08-06T08:17:16;0.55;;;0.45;;
13584;SDS011;6863;48.402;9.994;2023-08-06T08:19:41;1.08;;;0.63;;
13584;SDS011;6863;48.402;9.994;2023-08-06T08:22:07;0.68;;;0.68;;
13584;SDS011;6863;48.402;9.994;2023-08-06T08:24:33;0.57;;;0.52;;
13584;SDS011;6863;48.402;9.994;2023-08-06T08:26:58;1.05;;;0.70;;
13584;SDS011;6863;48.402;9.994;2023-08-06T08:29:24;0.63;;;0.60;;
13584;SDS011;6863;48.402;9.994;2023-08-06T08:31:49;0.57;;;0.57;;
13584;SDS011;6863;48.402;9.994;2023-08-06T08:34:16;1.40;;;0.70;;
13584;SDS011;6863;48.402;9.994;2023-08-06T08:36:41;1.13;;;0.60;;
13584;SDS011;6863;48.402;9.994;2023-08-06T08:39:08;0.82;;;0.82;;
13584;SDS011;6863;48.402;9.994;2023-08-06T08:41:33;1.00;;;0.68;;
13584;SDS011;6863;48.402;9.994;2023-08-06T08:44:01;1.15;;;0.70;;
13584;SDS011;6863;48.402;9.994;2023-08-06T08:46:29;0.60;;;0.60;;
13584;SDS011;6863;48.402;9.994;2023-08-06T08:48:56;1.80;;;0.60;;
13584;SDS011;6863;48.402;9.994;2023-08-06T08:51:24;0.57;;;0.50;;
13584;SDS011;6863;48.402;9.994;2023-08-06T08:53:52;0.43;;;0.43;;
13584;SDS011;6863;48.402;9.994;2023-08-06T08:56:21;0.82;;;0.82;;
13584;SDS011;6863;48.402;9.994;2023-08-06T08:58:47;0.60;;;0.60;;
13584;SDS011;6863;48.402;9.994;2023-08-06T09:01:13;0.63;;;0.50;;
13584;SDS011;6863;48.402;9.994;2023-08-06T09:03:40;2.15;;;0.63;;
13584;SDS011;6863;48.402;9.994;2023-08-06T09:06:08;0.90;;;0.80;;
13584;SDS011;6863;48.402;9.994;2023-08-06T09:08:37;0.87;;;0.77;;
13584;SDS011;6863;48.402;9.994;2023-08-06T09:11:09;0.47;;;0.47;;
13584;SDS011;6863;48.402;9.994;2023-08-06T09:13:37;0.60;;;0.60;;
13584;SDS011;6863;48.402;9.994;2023-08-06T09:16:04;0.60;;;0.60;;
13584;SDS011;6863;48.402;9.994;2023-08-06T09:18:30;0.60;;;0.60;;
13584;SDS011;6863;48.402;9.994;2023-08-06T09:20:58;0.87;;;0.50;;
13584;SDS011;6863;48.402;9.994;2023-08-06T09:23:28;0.70;;;0.70;;
13584;SDS011;6863;48.402;9.994;2023-08-06T09:25:57;0.50;;;0.50;;
13584;SDS011;6863;48.402;9.994;2023-08-06T09:28:23;0.60;;;0.60;;
13584;SDS011;6863;48.402;9.994;2023-08-06T09:30:49;1.30;;;0.67;;
13584;SDS011;6863;48.402;9.994;2023-08-06T09:33:18;1.13;;;0.60;;
13584;SDS011;6863;48.402;9.994;2023-08-06T09:35:45;0.50;;;0.50;;
13584;SDS011;6863;48.402;9.994;2023-08-06T09:38:11;1.10;;;0.43;;
13584;SDS011;6863;48.402;9.994;2023-08-06T09:40:38;0.40;;;0.40;;
13584;SDS011;6863;48.402;9.994;2023-08-06T09:43:04;0.30;;;0.30;;
13584;SDS011;6863;48.402;9.994;2023-08-06T09:45:33;0.30;;;0.30;;
13584;SDS011;6863;48.402;9.994;2023-08-06T09:48:02;0.70;;;0.70;;
13584;SDS011;6863;48.402;9.994;2023-08-06T09:50:33;0.60;;;0.60;;
13584;SDS011;6863;48.402;9.994;2023-08-06T09:53:01;0.60;;;0.60;;
13584;SDS011;6863;48.402;9.994;2023-08-06T09:55:28;0.60;;;0.60;;
13584;SDS011;6863;48.402;9.994;2023-08-06T10:00:25;0.60;;;0.60;;
13584;SDS011;6863;48.402;9.994;2023-08-06T10:02:53;0.97;;;0.80;;
13584;SDS011;6863;48.402;9.994;2023-08-06T10:05:21;1.23;;;1.10;;
13584;SDS011;6863;48.402;9.994;2023-08-06T10:07:48;0.83;;;0.83;;
13584;SDS011;6863;48.402;9.994;2023-08-06T10:10:15;0.80;;;0.80;;
13584;SDS011;6863;48.402;9.994;2023-08-06T10:12:46;0.73;;;0.73;;
13584;SDS011;6863;48.402;9.994;2023-08-06T10:15:14;0.83;;;0.80;;
13584;SDS011;6863;48.402;9.994;2023-08-06T10:17:42;0.80;;;0.80;;
13584;SDS011;6863;48.402;9.994;2023-08-06T10:20:10;3.67;;;1.00;;
13584;SDS011;6863;48.402;9.994;2023-08-06T10:22:37;0.80;;;0.80;;
13584;SDS011;6863;48.402;9.994;2023-08-06T10:25:09;0.90;;;0.90;;
13584;SDS011;6863;48.402;9.994;2023-08-06T10:27:35;1.00;;;1.00;;
13584;SDS011;6863;48.402;9.994;2023-08-06T10:30:25;1.27;;;0.90;;
13584;SDS011;6863;48.402;9.994;2023-08-06T10:32:56;0.87;;;0.87;;
13584;SDS011;6863;48.402;9.994;2023-08-06T10:38:09;0.65;;;0.65;;
13584;SDS011;6863;48.402;9.994;2023-08-06T10:40:35;0.57;;;0.57;;
13584;SDS011;6863;48.402;9.994;2023-08-06T10:43:04;0.65;;;0.65;;
13584;SDS011;6863;48.402;9.994;2023-08-06T10:45:34;0.60;;;0.60;;
13584;SDS011;6863;48.402;9.994;2023-08-06T10:48:00;0.40;;;0.40;;
13584;SDS011;6863;48.402;9.994;2023-08-06T10:50:26;1.77;;;0.77;;
13584;SDS011;6863;48.402;9.994;2023-08-06T10:52:52;0.82;;;0.50;;
13584;SDS011;6863;48.402;9.994;2023-08-06T10:55:25;0.60;;;0.60;;
13584;SDS011;6863;48.402;9.994;2023-08-06T11:00:23;0.70;;;0.70;;
13584;SDS011;6863;48.402;9.994;2023-08-06T11:02:48;0.67;;;0.67;;
13584;SDS011;6863;48.402;9.994;2023-08-06T11:05:15;0.60;;;0.60;;
13584;SDS011;6863;48.402;9.994;2023-08-06T11:07:41;1.27;;;1.20;;
13584;SDS011;6863;48.402;9.994;2023-08-06T11:10:08;1.27;;;1.17;;
13584;SDS011;6863;48.402;9.994;2023-08-06T11:12:35;0.97;;;0.97;;
13584;SDS011;6863;48.402;9.994;2023-08-06T11:15:01;0.60;;;0.60;;
13584;SDS011;6863;48.402;9.994;2023-08-06T11:17:28;0.60;;;0.60;;
13584;SDS011;6863;48.402;9.994;2023-08-06T11:19:55;0.77;;;0.70;;
13584;SDS011;6863;48.402;9.994;2023-08-06T11:22:21;1.03;;;0.70;;
13584;SDS011;6863;48.402;9.994;2023-08-06T11:24:47;0.93;;;0.60;;
13584;SDS011;6863;48.402;9.994;2023-08-06T11:27:14;0.63;;;0.63;;
13584;SDS011;6863;48.402;9.994;2023-08-06T11:29:41;0.77;;;0.67;;
13584;SDS011;6863;48.402;9.994;2023-08-06T11:32:07;0.60;;;0.60;;
13584;SDS011;6863;48.402;9.994;2023-08-06T11:34:36;0.83;;;0.83;;
13584;SDS011;6863;48.402;9.994;2023-08-06T11:37:02;0.67;;;0.60;;
13584;SDS011;6863;48.402;9.994;2023-08-06T11:39:32;0.63;;;0.60;;
13584;SDS011;6863;48.402;9.994;2023-08-06T11:41:58;0.40;;;0.40;;
13584;SDS011;6863;48.402;9.994;2023-08-06T11:44:27;0.80;;;0.80;;
13584;SDS011;6863;48.402;9.994;2023-08-06T11:47:00;0.63;;;0.60;;
13584;SDS011;6863;48.402;9.994;2023-08-06T11:54:37;0.37;;;0.37;;
13584;SDS011;6863;48.402;9.994;2023-08-06T11:57:05;0.87;;;0.60;;
13584;SDS011;6863;48.402;9.994;2023-08-06T11:59:31;0.60;;;0.60;;
13584;SDS011;6863;48.402;9.994;2023-08-06T12:01:57;0.50;;;0.50;;
13584;SDS011;6863;48.402;9.994;2023-08-06T12:04:24;0.50;;;0.50;;
13584;SDS011;6863;48.402;9.994;2023-08-06T12:06:50;0.32;;;0.32;;
13584;SDS011;6863;48.402;9.994;2023-08-06T12:09:16;0.50;;;0.50;;
13584;SDS011;6863;48.402;9.994;2023-08-06T12:11:41;0.50;;;0.50;;
13584;SDS011;6863;48.402;9.994;2023-08-06T12:14:07;0.40;;;0.40;;
13584;SDS011;6863;48.402;9.994;2023-08-06T12:16:32;0.63;;;0.63;;
13584;SDS011;6863;48.402;9.994;2023-08-06T12:18:58;0.30;;;0.30;;
13584;SDS011;6863;48.402;9.994;2023-08-06T12:21:23;0.63;;;0.40;;
13584;SDS011;6863;48.402;9.994;2023-08-06T12:23:49;0.40;;;0.40;;
13584;SDS011;6863;48.402;9.994;2023-08-06T12:26:15;0.40;;;0.40;;
13584;SDS011;6863;48.402;9.994;2023-08-06T12:28:40;0.20;;;0.20;;
13584;SDS011;6863;48.402;9.994;2023-08-06T12:31:06;0.55;;;0.30;;
13584;SDS011;6863;48.402;9.994;2023-08-06T12:33:31;0.40;;;0.40;;
13584;SDS011;6863;48.402;9.994;2023-08-06T12:35:57;0.67;;;0.67;;
13584;SDS011;6863;48.402;9.994;2023-08-06T12:38:23;0.52;;;0.52;;
13584;SDS011;6863;48.402;9.994;2023-08-06T12:40:48;0.40;;;0.40;;
13584;SDS011;6863;48.402;9.994;2023-08-06T12:43:14;0.50;;;0.50;;
13584;SDS011;6863;48.402;9.994;2023-08-06T12:45:40;0.50;;;0.50;;
13584;SDS011;6863;48.402;9.994;2023-08-06T12:48:06;1.10;;;1.00;;
13584;SDS011;6863;48.402;9.994;2023-08-06T12:50:32;1.03;;;0.70;;
13584;SDS011;6863;48.402;9.994;2023-08-06T12:53:00;0.60;;;0.60;;
13584;SDS011;6863;48.402;9.994;2023-08-06T12:55:26;0.33;;;0.33;;
13584;SDS011;6863;48.402;9.994;2023-08-06T13:00:23;1.13;;;0.43;;
13584;SDS011;6863;48.402;9.994;2023-08-06T13:02:51;0.50;;;0.50;;
13584;SDS011;6863;48.402;9.994;2023-08-06T13:05:17;0.95;;;0.45;;
13584;SDS011;6863;48.402;9.994;2023-08-06T13:07:42;0.50;;;0.50;;
13584;SDS011;6863;48.402;9.994;2023-08-06T13:10:11;0.60;;;0.60;;
13584;SDS011;6863;48.402;9.994;2023-08-06T13:12:37;0.45;;;0.45;;
13584;SDS011;6863;48.402;9.994;2023-08-06T13:15:06;0.57;;;0.57;;
13584;SDS011;6863;48.402;9.994;2023-08-06T13:17:32;0.57;;;0.57;;
13584;SDS011;6863;48.402;9.994;2023-08-06T13:19:57;0.30;;;0.30;;
13584;SDS011;6863;48.402;9.994;2023-08-06T13:22:23;0.50;;;0.50;;
13584;SDS011;6863;48.402;9.994;2023-08-06T13:24:49;0.63;;;0.60;;
13584;SDS011;6863;48.402;9.994;2023-08-06T13:27:14;0.57;;;0.57;;
13584;SDS011;6863;48.402;9.994;2023-08-06T13:29:40;0.75;;;0.60;;
13584;SDS011;6863;48.402;9.994;2023-08-06T13:32:05;0.70;;;0.70;;
13584;SDS011;6863;48.402;9.994;2023-08-06T13:34:31;1.23;;;0.70;;
13584;SDS011;6863;48.402;9.994;2023-08-06T13:36:57;0.40;;;0.40;;
13584;SDS011;6863;48.402;9.994;2023-08-06T13:39:22;0.70;;;0.70;;
13584;SDS011;6863;48.402;9.994;2023-08-06T13:41:48;0.90;;;0.90;;
13584;SDS011;6863;48.402;9.994;2023-08-06T13:44:13;0.80;;;0.80;;
13584;SDS011;6863;48.402;9.994;2023-08-06T13:46:40;7.38;;;5.28;;
13584;SDS011;6863;48.402;9.994;2023-08-06T13:49:06;1.60;;;1.30;;
13584;SDS011;6863;48.402;9.994;2023-08-06T13:51:31;0.88;;;0.82;;
13584;SDS011;6863;48.402;9.994;2023-08-06T13:53:59;0.80;;;0.80;;
13584;SDS011;6863;48.402;9.994;2023-08-06T13:56:24;0.68;;;0.68;;
13584;SDS011;6863;48.402;9.994;2023-08-06T13:58:50;0.60;;;0.60;;
13584;SDS011;6863;48.402;9.994;2023-08-06T14:01:16;1.52;;;1.00;;
13584;SDS011;6863;48.402;9.994;2023-08-06T14:03:43;0.93;;;0.88;;
13584;SDS011;6863;48.402;9.994;2023-08-06T14:06:09;1.20;;;1.10;;
13584;SDS011;6863;48.402;9.994;2023-08-06T14:08:35;0.75;;;0.75;;
13584;SDS011;6863;48.402;9.994;2023-08-06T14:11:00;0.85;;;0.85;;
13584;SDS011;6863;48.402;9.994;2023-08-06T14:13:26;0.90;;;0.90;;
13584;SDS011;6863;48.402;9.994;2023-08-06T14:15:52;1.00;;;0.90;;
13584;SDS011;6863;48.402;9.994;2023-08-06T14:18:17;0.90;;;0.90;;
13584;SDS011;6863;48.402;9.994;2023-08-06T14:20:43;0.60;;;0.60;;
13584;SDS011;6863;48.402;9.994;2023-08-06T14:23:09;1.58;;;1.08;;
13584;SDS011;6863;48.402;9.994;2023-08-06T14:25:35;0.90;;;0.90;;
13584;SDS011;6863;48.402;9.994;2023-08-06T14:28:01;0.80;;;0.80;;
13584;SDS011;6863;48.402;9.994;2023-08-06T14:30:26;0.70;;;0.70;;
13584;SDS011;6863;48.402;9.994;2023-08-06T14:32:52;1.02;;;0.90;;
13584;SDS011;6863;48.402;9.994;2023-08-06T14:35:17;0.80;;;0.80;;
13584;SDS011;6863;48.402;9.994;2023-08-06T14:37:43;1.00;;;0.90;;
13584;SDS011;6863;48.402;9.994;2023-08-06T14:40:10;0.68;;;0.68;;
13584;SDS011;6863;48.402;9.994;2023-08-06T14:42:36;0.90;;;0.90;;
13584;SDS011;6863;48.402;9.994;2023-08-06T14:45:02;0.60;;;0.60;;
13584;SDS011;6863;48.402;9.994;2023-08-06T14:47:28;0.50;;;0.50;;
13584;SDS011;6863;48.402;9.994;2023-08-06T14:49:54;0.80;;;0.80;;
13584;SDS011;6863;48.402;9.994;2023-08-06T14:52:20;0.70;;;0.70;;
13584;SDS011;6863;48.402;9.994;2023-08-06T14:54:46;0.70;;;0.70;;
13584;SDS011;6863;48.402;9.994;2023-08-06T14:57:12;0.82;;;0.82;;
13584;SDS011;6863;48.402;9.994;2023-08-06T14:59:38;0.70;;;0.70;;
13584;SDS011;6863;48.402;9.994;2023-08-06T15:02:05;1.55;;;1.05;;
13584;SDS011;6863;48.402;9.994;2023-08-06T15:04:31;1.10;;;1.10;;
13584;SDS011;6863;48.402;9.994;2023-08-06T15:06:56;0.85;;;0.70;;
13584;SDS011;6863;48.402;9.994;2023-08-06T15:09:22;0.50;;;0.50;;
13584;SDS011;6863;48.402;9.994;2023-08-06T15:11:48;0.70;;;0.70;;
13584;SDS011;6863;48.402;9.994;2023-08-06T15:14:14;0.47;;;0.47;;
13584;SDS011;6863;48.402;9.994;2023-08-06T15:16:40;0.63;;;0.52;;
13584;SDS011;6863;48.402;9.994;2023-08-06T15:19:05;0.60;;;0.60;;
13584;SDS011;6863;48.402;9.994;2023-08-06T15:21:31;0.55;;;0.55;;
13584;SDS011;6863;48.402;9.994;2023-08-06T15:23:57;0.70;;;0.70;;